createdAt,value
2022-12-20T00:01:35.162Z,34.60
2022-12-20T00:04:02.564Z,32.45
2022-12-20T00:06:29.417Z,32.35
2022-12-20T00:08:56.590Z,34.25
2022-12-20T00:11:21.075Z,34.90
2022-12-20T00:13:47.889Z,33.92
2022-12-20T00:16:17.816Z,35.20
2022-12-20T00:18:43.232Z,34.70
2022-12-20T00:21:09.211Z,33.75
2022-12-20T00:23:36.522Z,33.97
2022-12-20T00:26:06.016Z,33.95
2022-12-20T00:28:30.647Z,34.22
2022-12-20T00:30:55.774Z,38.17
2022-12-20T00:33:20.363Z,39.33
2022-12-20T00:35:44.723Z,33.60
2022-12-20T00:38:09.367Z,37.20
2022-12-20T00:40:35.661Z,37.10
2022-12-20T00:43:00.184Z,34.92
2022-12-20T00:45:24.618Z,33.53
2022-12-20T00:47:49.193Z,32.88
2022-12-20T00:50:13.787Z,32.30
2022-12-20T00:52:38.332Z,31.92
2022-12-20T00:55:02.809Z,30.35
2022-12-20T00:57:29.032Z,31.95
2022-12-20T00:59:53.566Z,35.03
2022-12-20T01:02:18.831Z,33.67
2022-12-20T01:04:45.202Z,32.67
2022-12-20T01:07:09.947Z,32.97
2022-12-20T01:09:34.451Z,33.17
2022-12-20T01:11:59.063Z,32.30
2022-12-20T01:14:25.086Z,34.17
2022-12-20T01:16:50.026Z,33.83
2022-12-20T01:19:16.812Z,34.03
2022-12-20T01:21:44.955Z,30.92
2022-12-20T01:24:11.173Z,32.63
2022-12-20T01:26:36.323Z,32.75
2022-12-20T01:29:01.755Z,32.40
2022-12-20T01:31:33.564Z,37.00
2022-12-20T01:33:59.247Z,34.53
2022-12-20T01:36:26.486Z,36.22
2022-12-20T01:38:51.180Z,37.42
2022-12-20T01:41:17.446Z,37.08
2022-12-20T01:43:50.836Z,35.63
2022-12-20T01:46:15.688Z,36.58
2022-12-20T01:48:44.027Z,38.78
2022-12-20T01:51:08.942Z,40.13
2022-12-20T01:53:33.851Z,39.05
2022-12-20T01:56:02.031Z,36.92
2022-12-20T01:58:26.989Z,41.10
2022-12-20T02:00:51.858Z,40.67
2022-12-20T02:03:18.088Z,38.53
2022-12-20T02:05:47.138Z,38.63
2022-12-20T02:08:14.790Z,37.97
2022-12-20T02:10:52.865Z,41.58
2022-12-20T02:13:36.901Z,39.03
2022-12-20T02:16:01.624Z,39.95
2022-12-20T02:18:31.014Z,40.58
2022-12-20T02:21:21.347Z,41.33
2022-12-20T02:24:28.790Z,42.17
2022-12-20T02:27:30.029Z,41.05
2022-12-20T02:30:04.668Z,39.70
2022-12-20T02:32:36.556Z,39.90
2022-12-20T02:35:01.752Z,41.33
2022-12-20T02:37:26.383Z,40.40
2022-12-20T02:39:51.469Z,39.47
2022-12-20T02:42:18.548Z,42.63
2022-12-20T02:45:03.336Z,42.85
2022-12-20T02:47:35.456Z,40.50
2022-12-20T02:50:00.073Z,34.67
2022-12-20T02:52:31.264Z,36.03
2022-12-20T02:54:57.011Z,35.70
2022-12-20T02:57:27.623Z,36.00
2022-12-20T02:59:59.519Z,33.38
2022-12-20T03:02:28.714Z,33.03
2022-12-20T03:04:55.649Z,33.10
2022-12-20T03:07:21.363Z,32.10
2022-12-20T03:09:46.999Z,31.88
2022-12-20T03:12:14.734Z,31.10
2022-12-20T03:14:39.351Z,33.35
2022-12-20T03:17:06.126Z,32.65
2022-12-20T03:19:32.805Z,38.15
2022-12-20T03:21:57.708Z,34.08
2022-12-20T03:24:22.269Z,29.77
2022-12-20T03:26:48.107Z,33.63
2022-12-20T03:29:15.486Z,35.47
2022-12-20T03:31:40.403Z,34.50
2022-12-20T03:34:05.843Z,36.33
2022-12-20T03:36:34.104Z,32.42
2022-12-20T03:39:01.821Z,34.28
2022-12-20T03:41:30.398Z,33.20
2022-12-20T03:43:54.946Z,33.00
2022-12-20T03:46:21.161Z,34.15
2022-12-20T03:48:45.778Z,34.22
2022-12-20T03:51:10.578Z,34.17
2022-12-20T03:53:37.034Z,35.28
2022-12-20T03:56:01.622Z,34.47
2022-12-20T03:58:26.337Z,35.75
2022-12-20T04:00:51.645Z,35.33
2022-12-20T04:03:35.485Z,38.20
2022-12-20T04:06:00.144Z,36.03
2022-12-20T04:08:25.406Z,35.30
2022-12-20T04:11:05.427Z,37.33
2022-12-20T04:13:32.731Z,36.35
2022-12-20T04:16:00.658Z,37.28
2022-12-20T04:18:29.292Z,39.15
2022-12-20T04:20:55.438Z,36.97
2022-12-20T04:23:26.913Z,38.47
2022-12-20T04:25:52.940Z,36.58
2022-12-20T04:28:17.443Z,37.05
2022-12-20T04:30:42.876Z,38.38
2022-12-20T04:33:08.019Z,37.72
2022-12-20T04:35:32.976Z,38.15
2022-12-20T04:37:58.507Z,40.28
2022-12-20T04:40:23.103Z,39.50
2022-12-20T04:42:53.464Z,40.38
2022-12-20T04:45:20.374Z,42.17
2022-12-20T04:47:45.981Z,46.90
2022-12-20T04:50:13.653Z,41.58
2022-12-20T04:52:58.223Z,41.75
2022-12-20T04:55:23.515Z,39.63
2022-12-20T04:57:48.464Z,40.35
2022-12-20T05:00:17.358Z,39.15
2022-12-20T05:02:47.772Z,39.13
2022-12-20T05:05:16.712Z,39.00
2022-12-20T05:07:47.259Z,37.53
2022-12-20T05:10:12.770Z,37.42
2022-12-20T05:12:37.755Z,38.10
2022-12-20T05:15:02.909Z,39.85
2022-12-20T05:17:29.129Z,38.63
2022-12-20T05:19:53.908Z,37.80
2022-12-20T05:22:37.034Z,40.05
2022-12-20T05:25:37.180Z,38.72
2022-12-20T05:28:05.225Z,37.42
2022-12-20T05:30:33.104Z,40.08
2022-12-20T05:33:00.261Z,42.92
2022-12-20T05:35:25.377Z,39.85
2022-12-20T05:37:56.350Z,36.95
2022-12-20T05:40:20.858Z,37.30
2022-12-20T05:42:45.879Z,37.65
2022-12-20T05:45:12.439Z,37.72
2022-12-20T05:47:51.200Z,38.85
2022-12-20T05:50:19.299Z,38.30
2022-12-20T05:53:07.446Z,35.80
2022-12-20T05:55:36.925Z,38.53
2022-12-20T05:58:02.288Z,36.70
2022-12-20T06:00:47.518Z,38.42
2022-12-20T06:03:15.353Z,38.33
2022-12-20T06:05:43.067Z,41.35
2022-12-20T06:08:11.389Z,39.03
2022-12-20T06:10:36.463Z,38.20
2022-12-20T06:13:01.671Z,39.03
2022-12-20T06:15:27.185Z,38.75
2022-12-20T06:17:51.864Z,37.33
2022-12-20T06:20:16.973Z,38.10
2022-12-20T06:22:46.633Z,36.15
2022-12-20T06:25:15.239Z,36.88
2022-12-20T06:27:40.047Z,36.42
2022-12-20T06:30:10.787Z,41.78
2022-12-20T06:32:55.679Z,42.35
2022-12-20T06:35:20.514Z,44.55
2022-12-20T06:37:47.873Z,49.05
2022-12-20T06:40:14.415Z,44.55
2022-12-20T06:42:39.200Z,41.33
2022-12-20T06:45:05.398Z,42.83
2022-12-20T06:47:30.576Z,41.97
2022-12-20T06:49:56.108Z,40.40
2022-12-20T06:52:21.129Z,44.53
2022-12-20T06:54:50.184Z,40.40
2022-12-20T06:57:15.083Z,39.95
2022-12-20T06:59:41.968Z,40.47
2022-12-20T07:02:08.167Z,39.88
2022-12-20T07:04:33.881Z,39.28
2022-12-20T07:06:58.469Z,40.08
2022-12-20T07:09:23.170Z,37.65
2022-12-20T07:11:50.779Z,36.60
2022-12-20T07:14:16.560Z,34.40
2022-12-20T07:16:43.979Z,38.60
2022-12-20T07:19:08.627Z,37.13
2022-12-20T07:21:33.065Z,39.08
2022-12-20T07:23:57.805Z,38.22
2022-12-20T07:26:22.160Z,38.30
2022-12-20T07:28:48.510Z,39.00
2022-12-20T07:31:12.918Z,39.17
2022-12-20T07:33:38.922Z,40.20
2022-12-20T07:36:03.708Z,40.00
2022-12-20T07:38:28.691Z,39.92
2022-12-20T07:40:53.386Z,36.80
2022-12-20T07:43:17.887Z,37.38
2022-12-20T07:45:43.958Z,37.97
2022-12-20T07:48:13.734Z,37.97
2022-12-20T07:50:40.089Z,37.15
2022-12-20T07:53:07.609Z,35.30
2022-12-20T07:55:32.548Z,35.05
2022-12-20T07:58:03.043Z,36.60
2022-12-20T08:00:27.989Z,36.65
2022-12-20T08:03:01.112Z,36.45
2022-12-20T08:05:26.426Z,34.00
2022-12-20T08:07:56.797Z,33.95
2022-12-20T08:10:23.724Z,33.20
2022-12-20T08:12:49.982Z,33.03
2022-12-20T08:15:14.592Z,32.20
2022-12-20T08:17:39.238Z,31.60
2022-12-20T08:20:06.928Z,31.83
2022-12-20T08:22:31.369Z,32.30
2022-12-20T08:24:55.999Z,34.75
2022-12-20T08:27:20.293Z,36.38
2022-12-20T08:29:44.901Z,33.38
2022-12-20T08:32:09.331Z,31.73
2022-12-20T08:34:33.806Z,32.65
2022-12-20T08:36:59.527Z,33.88
2022-12-20T08:39:23.955Z,36.97
2022-12-20T08:41:48.403Z,36.20
2022-12-20T08:44:12.978Z,35.05
2022-12-20T08:46:38.007Z,32.95
2022-12-20T08:49:03.163Z,35.58
2022-12-20T08:51:27.581Z,34.97
2022-12-20T08:53:53.889Z,33.83
2022-12-20T08:56:20.026Z,34.47
2022-12-20T08:58:45.631Z,34.25
2022-12-20T09:01:12.495Z,33.15
2022-12-20T09:03:37.949Z,32.00
2022-12-20T09:06:02.711Z,33.88
2022-12-20T09:08:27.912Z,32.35
2022-12-20T09:10:54.325Z,32.88
2022-12-20T09:13:19.200Z,30.95
2022-12-20T09:15:45.558Z,31.10
2022-12-20T09:18:10.437Z,33.92
2022-12-20T09:20:35.248Z,33.15
2022-12-20T09:23:00.174Z,34.38
2022-12-20T09:25:25.442Z,33.97
2022-12-20T09:27:51.333Z,33.65
2022-12-20T09:30:16.379Z,34.10
2022-12-20T09:32:40.752Z,35.58
2022-12-20T09:35:05.712Z,35.22
2022-12-20T09:37:32.340Z,35.83
2022-12-20T09:39:59.140Z,34.08
2022-12-20T09:42:27.236Z,32.50
2022-12-20T09:44:54.873Z,34.97
2022-12-20T09:47:21.944Z,34.03
2022-12-20T09:49:53.506Z,33.00
2022-12-20T09:55:12.228Z,34.45
2022-12-20T09:57:51.272Z,33.63
2022-12-20T10:00:20.799Z,32.88
2022-12-20T10:03:04.243Z,34.80
2022-12-20T10:05:41.820Z,33.03
2022-12-20T10:08:12.892Z,34.63
2022-12-20T10:10:52.723Z,33.35
2022-12-20T10:13:34.764Z,34.42
2022-12-20T10:16:19.457Z,34.95
2022-12-20T10:18:58.393Z,34.78
2022-12-20T10:21:32.215Z,37.22
2022-12-20T10:24:03.438Z,34.38
2022-12-20T10:26:28.806Z,34.20
2022-12-20T10:28:54.612Z,36.85
2022-12-20T10:31:21.065Z,35.70
2022-12-20T10:33:46.993Z,33.78
2022-12-20T10:36:24.337Z,34.95
2022-12-20T10:38:50.811Z,33.70
2022-12-20T10:41:21.961Z,33.60
2022-12-20T10:43:49.841Z,33.70
2022-12-20T10:46:16.722Z,31.13
2022-12-20T10:48:44.551Z,33.95
2022-12-20T10:51:17.336Z,32.88
2022-12-20T10:53:56.666Z,31.95
2022-12-20T10:56:23.695Z,30.55
2022-12-20T10:58:58.268Z,29.63
2022-12-20T11:01:24.774Z,31.02
2022-12-20T11:03:56.301Z,29.58
2022-12-20T11:06:22.485Z,30.77
2022-12-20T11:08:53.851Z,29.67
2022-12-20T11:11:28.697Z,32.38
2022-12-20T11:13:54.307Z,31.52
2022-12-20T11:16:35.731Z,31.08
2022-12-20T11:19:27.891Z,31.55
2022-12-20T11:22:02.818Z,29.50
2022-12-20T11:24:34.625Z,30.95
2022-12-20T11:27:24.949Z,32.28
2022-12-20T11:30:06.993Z,28.77
2022-12-20T11:32:50.873Z,31.10
2022-12-20T11:35:22.847Z,30.58
2022-12-20T11:37:57.397Z,29.83
2022-12-20T11:40:31.660Z,30.17
2022-12-20T11:43:21.735Z,28.90
2022-12-20T11:46:02.128Z,29.83
2022-12-20T11:48:53.045Z,29.63
2022-12-20T11:51:27.027Z,32.88
2022-12-20T11:53:56.601Z,30.95
2022-12-20T11:56:26.062Z,29.42
2022-12-20T11:58:54.604Z,31.55
2022-12-20T12:01:22.372Z,32.53
2022-12-20T12:04:00.492Z,31.88
2022-12-20T12:06:30.126Z,29.17
2022-12-20T12:09:01.289Z,30.70
2022-12-20T12:14:35.017Z,29.70
2022-12-20T12:17:06.778Z,30.15
2022-12-20T12:19:32.927Z,28.38
2022-12-20T12:22:07.265Z,28.17
2022-12-20T12:24:39.247Z,28.33
2022-12-20T12:27:04.036Z,30.73
2022-12-20T12:29:31.136Z,29.48
2022-12-20T12:31:59.636Z,29.60
2022-12-20T12:34:37.803Z,30.38
2022-12-20T12:37:24.868Z,27.88
2022-12-20T12:40:14.055Z,31.45
2022-12-20T12:43:09.050Z,27.48
2022-12-20T12:45:37.730Z,27.65
2022-12-20T12:48:07.761Z,28.92
2022-12-20T12:50:36.827Z,29.25
2022-12-20T12:53:09.097Z,27.25
2022-12-20T12:55:38.890Z,27.30
2022-12-20T12:58:15.537Z,27.85
2022-12-20T13:00:52.307Z,26.95
2022-12-20T13:03:18.264Z,26.52
2022-12-20T13:05:42.667Z,27.73
2022-12-20T13:08:17.831Z,26.60
2022-12-20T13:11:00.965Z,27.70
2022-12-20T13:13:25.891Z,29.23
2022-12-20T13:16:07.704Z,29.33
2022-12-20T13:18:32.698Z,26.73
2022-12-20T13:21:37.032Z,28.52
2022-12-20T13:24:38.173Z,29.50
2022-12-20T13:27:15.406Z,29.15
2022-12-20T13:29:54.069Z,29.23
2022-12-20T13:32:51.846Z,29.30
2022-12-20T13:35:31.760Z,30.23
2022-12-20T13:37:58.048Z,30.90
2022-12-20T13:40:33.221Z,29.75
2022-12-20T13:43:03.630Z,29.92
2022-12-20T13:45:29.785Z,30.13
2022-12-20T13:47:57.416Z,30.77
2022-12-20T13:50:40.706Z,30.02
2022-12-20T13:53:06.641Z,28.25
2022-12-20T13:55:37.360Z,31.15
2022-12-20T13:58:11.458Z,28.70
2022-12-20T14:00:36.114Z,28.77
2022-12-20T14:03:03.383Z,30.20
2022-12-20T14:05:33.244Z,28.75
2022-12-20T14:08:01.096Z,29.65
2022-12-20T14:10:27.683Z,29.02
2022-12-20T14:12:54.659Z,27.25
2022-12-20T14:15:29.545Z,29.27
2022-12-20T14:17:54.333Z,28.20
2022-12-20T14:20:27.391Z,29.25
2022-12-20T14:23:04.113Z,29.67
2022-12-20T14:25:33.748Z,31.30
2022-12-20T14:27:59.312Z,27.25
2022-12-20T14:30:32.501Z,29.00
2022-12-20T14:32:57.622Z,29.25
2022-12-20T14:35:22.543Z,27.70
2022-12-20T14:37:55.940Z,28.27
2022-12-20T14:40:22.497Z,29.15
2022-12-20T14:42:47.316Z,29.70
2022-12-20T14:45:20.522Z,31.00
2022-12-20T14:47:55.614Z,28.02
2022-12-20T14:50:22.159Z,30.67
2022-12-20T14:52:47.498Z,29.60
2022-12-20T14:55:18.446Z,29.95
2022-12-20T14:57:47.537Z,30.25
2022-12-20T15:00:23.597Z,30.27
2022-12-20T15:02:59.317Z,31.92
2022-12-20T15:05:46.108Z,28.58
2022-12-20T15:08:15.306Z,30.20
2022-12-20T15:10:42.349Z,31.07
2022-12-20T15:13:09.841Z,29.92
2022-12-20T15:15:34.445Z,32.15
2022-12-20T15:18:01.100Z,32.90
2022-12-20T15:20:25.582Z,33.10
2022-12-20T15:22:51.066Z,33.13
2022-12-20T15:25:17.788Z,33.35
2022-12-20T15:27:42.732Z,34.53
2022-12-20T15:30:13.035Z,34.95
2022-12-20T15:32:40.809Z,33.42
2022-12-20T15:35:17.137Z,36.00
2022-12-20T15:37:43.505Z,36.47
2022-12-20T15:40:09.383Z,35.05
2022-12-20T15:42:36.147Z,36.67
2022-12-20T15:45:01.554Z,37.03
2022-12-20T15:47:27.243Z,36.38
2022-12-20T15:49:51.968Z,38.53
2022-12-20T15:52:22.055Z,36.60
2022-12-20T15:54:47.433Z,36.92
2022-12-20T15:57:14.912Z,39.30
2022-12-20T16:02:26.130Z,41.67
2022-12-20T16:04:50.902Z,21.52
2022-12-20T16:07:15.616Z,39.15
2022-12-20T16:09:41.393Z,36.08
2022-12-20T16:12:06.607Z,36.75
2022-12-20T16:14:32.039Z,36.33
2022-12-20T16:16:56.435Z,34.67
2022-12-20T16:19:20.825Z,36.35
2022-12-20T16:21:48.846Z,37.17
2022-12-20T16:24:15.724Z,38.03
2022-12-20T16:26:44.611Z,38.67
2022-12-20T16:29:09.101Z,37.40
2022-12-20T16:31:35.120Z,40.65
2022-12-20T16:34:03.106Z,39.60
2022-12-20T16:36:27.831Z,39.33
2022-12-20T16:38:53.104Z,44.03
2022-12-20T16:41:18.970Z,42.20
2022-12-20T16:43:45.585Z,39.45
2022-12-20T16:46:13.735Z,41.20
2022-12-20T16:48:38.273Z,38.95
2022-12-20T16:51:33.641Z,39.88
2022-12-20T16:56:45.945Z,37.55
2022-12-20T16:59:22.125Z,37.47
2022-12-20T17:01:48.197Z,35.42
2022-12-20T17:04:16.530Z,35.50
2022-12-20T17:06:41.112Z,33.22
2022-12-20T17:09:05.540Z,33.55
2022-12-20T17:11:32.473Z,33.08
2022-12-20T17:13:57.941Z,33.75
2022-12-20T17:16:25.023Z,32.42
2022-12-20T17:18:51.318Z,31.42
2022-12-20T17:21:24.203Z,33.80
2022-12-20T17:23:49.384Z,35.05
2022-12-20T17:26:15.908Z,33.17
2022-12-20T17:28:40.425Z,35.08
2022-12-20T17:31:08.197Z,35.92
2022-12-20T17:33:34.335Z,35.95
2022-12-20T17:35:59.051Z,33.97
2022-12-20T17:38:23.748Z,36.70
2022-12-20T17:40:48.105Z,39.13
2022-12-20T17:43:14.182Z,38.65
2022-12-20T17:45:38.986Z,41.65
2022-12-20T17:48:03.542Z,42.83
2022-12-20T17:50:29.386Z,42.05
2022-12-20T17:52:54.784Z,39.75
2022-12-20T17:55:21.749Z,42.20
2022-12-20T17:57:46.368Z,37.83
2022-12-20T18:00:21.065Z,45.45
2022-12-20T18:22:44.525Z,42.53
2022-12-20T18:25:09.782Z,43.90
2022-12-20T18:27:38.786Z,40.63
2022-12-20T18:30:03.635Z,39.75
2022-12-20T18:32:28.115Z,40.78
2022-12-20T18:34:52.594Z,42.75
2022-12-20T18:37:17.010Z,40.83
2022-12-20T18:39:42.988Z,42.13
2022-12-20T18:42:07.896Z,40.05
2022-12-20T18:44:35.966Z,39.33
2022-12-20T18:47:02.983Z,39.85
2022-12-20T18:49:27.563Z,38.92
2022-12-20T18:51:52.008Z,40.78
2022-12-20T18:54:16.867Z,39.42
2022-12-20T18:56:42.775Z,39.60
2022-12-20T18:59:12.703Z,40.20
2022-12-20T19:01:37.801Z,37.45
2022-12-20T19:04:03.804Z,36.17
2022-12-20T19:06:28.385Z,38.75
2022-12-20T19:08:53.238Z,40.35
2022-12-20T19:11:19.980Z,42.70
2022-12-20T19:13:46.471Z,41.47
2022-12-20T19:16:14.180Z,39.85
2022-12-20T19:18:38.757Z,41.42
2022-12-20T19:21:07.573Z,42.53
2022-12-20T19:23:32.059Z,41.83
2022-12-20T19:26:05.024Z,40.72
2022-12-20T19:28:30.383Z,41.75
2022-12-20T19:30:56.512Z,39.97
2022-12-20T19:33:21.383Z,41.60
2022-12-20T19:35:55.304Z,39.08
2022-12-20T19:38:20.786Z,41.33
2022-12-20T19:40:52.106Z,41.35
2022-12-20T19:43:17.211Z,40.30
2022-12-20T19:45:41.636Z,43.13
2022-12-20T19:48:07.730Z,43.13
2022-12-20T19:50:32.344Z,43.55
2022-12-20T19:52:56.759Z,40.90
2022-12-20T19:55:21.059Z,40.35
2022-12-20T19:57:45.531Z,41.83
2022-12-20T20:00:11.196Z,40.13
2022-12-20T20:02:39.018Z,40.92
2022-12-20T20:05:09.531Z,39.38
2022-12-20T20:07:39.077Z,39.60
2022-12-20T20:10:03.590Z,39.83
2022-12-20T20:12:28.008Z,40.67
2022-12-20T20:14:53.140Z,39.83
2022-12-20T20:17:17.642Z,40.72
2022-12-20T20:19:42.720Z,40.58
2022-12-20T20:22:10.780Z,43.60
2022-12-20T20:24:36.176Z,43.95
2022-12-20T20:27:00.832Z,43.17
2022-12-20T20:29:25.135Z,45.20
2022-12-20T20:31:49.941Z,42.13
2022-12-20T20:34:14.317Z,43.97
2022-12-20T20:36:38.826Z,41.22
2022-12-20T20:39:04.941Z,40.42
2022-12-20T20:41:29.403Z,41.38
2022-12-20T20:43:53.701Z,41.38
2022-12-20T20:46:18.769Z,41.33
2022-12-20T20:48:44.007Z,42.38
2022-12-20T20:51:09.253Z,41.60
2022-12-20T20:53:34.709Z,42.38
2022-12-20T20:56:00.814Z,42.65
2022-12-20T20:58:25.764Z,41.20
2022-12-20T21:00:52.563Z,41.95
2022-12-20T21:03:17.219Z,42.30
2022-12-20T21:08:26.111Z,41.35
2022-12-20T21:10:50.954Z,40.58
2022-12-20T21:13:18.240Z,39.05
2022-12-20T21:15:43.653Z,41.70
2022-12-20T21:18:08.103Z,40.97
2022-12-20T21:20:32.398Z,39.67
2022-12-20T21:22:58.302Z,39.90
2022-12-20T21:25:22.659Z,40.30
2022-12-20T21:27:48.644Z,41.92
2022-12-20T21:30:14.948Z,43.50
2022-12-20T21:32:39.405Z,41.40
2022-12-20T21:35:03.880Z,41.38
2022-12-20T21:37:30.824Z,40.72
2022-12-20T21:39:55.526Z,42.10
2022-12-20T21:42:19.811Z,40.10
2022-12-20T21:44:44.214Z,41.65
2022-12-20T21:47:10.838Z,40.03
2022-12-20T21:49:35.254Z,40.20
2022-12-20T21:51:59.575Z,41.25
2022-12-20T21:54:24.273Z,46.80
2022-12-20T21:56:48.615Z,43.63
2022-12-20T21:59:13.206Z,41.33
2022-12-20T22:01:37.717Z,39.85
2022-12-20T22:04:05.809Z,40.28
2022-12-20T22:06:31.543Z,39.85
2022-12-20T22:08:57.755Z,38.97
2022-12-20T22:11:22.266Z,37.03
2022-12-20T22:13:47.648Z,39.72
2022-12-20T22:16:14.286Z,38.28
2022-12-20T22:18:39.202Z,36.03
2022-12-20T22:21:05.678Z,38.17
2022-12-20T22:23:30.165Z,39.88
2022-12-20T22:25:54.518Z,37.47
2022-12-20T22:28:19.054Z,38.08
2022-12-20T22:30:44.013Z,39.03
2022-12-20T22:33:08.519Z,40.85
2022-12-20T22:35:32.864Z,39.63
2022-12-20T22:37:58.625Z,38.70
2022-12-20T22:40:23.323Z,37.30
2022-12-20T22:42:47.748Z,36.17
2022-12-20T22:45:12.810Z,37.50
2022-12-20T22:47:37.631Z,37.88
2022-12-20T22:50:02.324Z,36.38
2022-12-20T22:52:27.783Z,37.15
2022-12-20T22:54:53.505Z,36.15
2022-12-20T22:57:18.254Z,33.70
2022-12-20T22:59:42.698Z,37.22
2022-12-20T23:02:07.197Z,34.63
2022-12-20T23:04:31.689Z,33.97
2022-12-20T23:06:56.092Z,34.90
2022-12-20T23:09:20.436Z,36.78
2022-12-20T23:12:03.449Z,36.42
2022-12-20T23:14:45.016Z,34.42
2022-12-20T23:17:11.358Z,36.30
2022-12-20T23:19:49.828Z,34.28
2022-12-20T23:22:31.635Z,35.90
2022-12-20T23:24:55.965Z,34.75
2022-12-20T23:27:21.696Z,35.15
2022-12-20T23:29:46.186Z,34.95
2022-12-20T23:32:10.549Z,36.83
2022-12-20T23:34:35.097Z,34.17
2022-12-20T23:36:59.569Z,36.53
2022-12-20T23:39:23.963Z,33.85
2022-12-20T23:41:48.355Z,34.70
2022-12-20T23:44:14.129Z,36.50
2022-12-20T23:46:38.585Z,35.97
2022-12-20T23:49:02.937Z,36.03
2022-12-20T23:51:27.327Z,37.33
2022-12-20T23:53:53.107Z,36.95
2022-12-20T23:56:19.652Z,34.58
2022-12-20T23:58:44.800Z,37.80
